createdAt,value
2022-07-27T00:01:50.652Z,1.33
2022-07-27T00:04:19.249Z,1.55
2022-07-27T00:06:46.867Z,1.23
2022-07-27T00:09:13.901Z,1.35
2022-07-27T00:11:41.112Z,1.40
2022-07-27T00:14:07.845Z,1.50
2022-07-27T00:16:34.627Z,1.10
2022-07-27T00:19:01.670Z,1.27
2022-07-27T00:21:28.889Z,1.10
2022-07-27T00:23:56.497Z,1.30
2022-07-27T00:26:23.421Z,1.10
2022-07-27T00:28:50.550Z,1.30
2022-07-27T00:31:17.679Z,1.30
2022-07-27T00:33:44.491Z,1.20
2022-07-27T00:36:11.720Z,1.58
2022-07-27T00:38:38.585Z,1.92
2022-07-27T00:41:08.684Z,1.38
2022-07-27T00:43:54.189Z,1.80
2022-07-27T00:46:21.397Z,1.45
2022-07-27T00:48:48.422Z,1.52
2022-07-27T00:51:17.635Z,1.63
2022-07-27T00:53:44.962Z,1.58
2022-07-27T00:56:12.030Z,1.83
2022-07-27T00:58:39.890Z,1.90
2022-07-27T01:01:07.241Z,1.70
2022-07-27T01:03:34.079Z,2.05
2022-07-27T01:06:01.048Z,1.60
2022-07-27T01:08:29.005Z,1.73
2022-07-27T01:10:57.445Z,1.50
2022-07-27T01:13:26.185Z,1.60
2022-07-27T01:15:53.774Z,1.70
2022-07-27T01:18:38.596Z,1.85
2022-07-27T01:21:09.041Z,1.60
2022-07-27T01:23:36.398Z,1.52
2022-07-27T01:26:05.460Z,1.48
2022-07-27T01:28:32.179Z,1.75
2022-07-27T01:30:58.902Z,1.55
2022-07-27T01:33:28.605Z,1.50
2022-07-27T01:35:57.452Z,1.67
2022-07-27T01:38:24.353Z,1.50
2022-07-27T01:40:52.533Z,1.60
2022-07-27T01:43:19.506Z,1.35
2022-07-27T01:45:46.191Z,1.50
2022-07-27T01:48:13.372Z,1.83
2022-07-27T01:50:40.298Z,1.80
2022-07-27T01:53:10.812Z,1.70
2022-07-27T01:55:38.875Z,1.60
2022-07-27T01:58:07.379Z,1.98
2022-07-27T02:00:34.805Z,1.90
2022-07-27T02:03:02.266Z,1.75
2022-07-27T02:05:29.144Z,1.48
2022-07-27T02:07:55.948Z,1.75
2022-07-27T02:10:22.867Z,1.40
2022-07-27T02:12:50.254Z,1.77
2022-07-27T02:15:19.761Z,1.70
2022-07-27T02:17:48.486Z,1.80
2022-07-27T02:20:18.375Z,1.75
2022-07-27T02:22:46.039Z,1.77
2022-07-27T02:25:15.010Z,2.15
2022-07-27T02:27:42.707Z,1.80
2022-07-27T02:30:11.642Z,1.95
2022-07-27T02:32:38.631Z,2.20
2022-07-27T02:35:18.819Z,1.90
2022-07-27T02:37:47.491Z,1.60
2022-07-27T02:40:17.022Z,2.10
2022-07-27T02:42:43.995Z,2.17
2022-07-27T02:45:10.907Z,1.83
2022-07-27T02:47:40.012Z,1.67
2022-07-27T02:50:08.423Z,2.33
2022-07-27T02:52:35.245Z,2.08
2022-07-27T02:55:02.519Z,2.55
2022-07-27T02:57:29.248Z,2.35
2022-07-27T02:59:57.308Z,2.15
2022-07-27T03:02:24.217Z,2.47
2022-07-27T03:04:51.023Z,2.08
2022-07-27T03:07:17.867Z,2.30
2022-07-27T03:09:48.142Z,1.85
2022-07-27T03:12:17.447Z,1.90
2022-07-27T03:14:44.152Z,2.40
2022-07-27T03:17:11.183Z,1.83
2022-07-27T03:19:37.885Z,1.95
2022-07-27T03:22:04.550Z,2.20
2022-07-27T03:24:31.249Z,2.20
2022-07-27T03:26:57.934Z,2.10
2022-07-27T03:29:24.625Z,2.05
2022-07-27T03:31:56.295Z,2.35
2022-07-27T03:34:23.040Z,2.47
2022-07-27T03:36:50.649Z,2.65
2022-07-27T03:39:17.419Z,2.33
2022-07-27T03:41:44.120Z,2.75
2022-07-27T03:44:10.932Z,2.45
2022-07-27T03:46:37.702Z,2.35
2022-07-27T03:49:13.992Z,2.17
2022-07-27T03:51:42.008Z,2.58
2022-07-27T03:54:08.872Z,2.42
2022-07-27T03:56:36.003Z,2.67
2022-07-27T03:59:02.955Z,2.67
2022-07-27T04:01:29.673Z,3.08
2022-07-27T04:03:56.440Z,2.42
2022-07-27T04:06:23.161Z,2.55
2022-07-27T04:08:50.473Z,2.30
2022-07-27T04:11:18.850Z,2.50
2022-07-27T04:13:48.776Z,2.83
2022-07-27T04:16:15.678Z,3.17
2022-07-27T04:18:42.756Z,2.28
2022-07-27T04:21:09.455Z,2.75
2022-07-27T04:23:38.288Z,2.67
2022-07-27T04:26:06.742Z,2.55
2022-07-27T04:28:34.859Z,2.60
2022-07-27T04:31:01.849Z,2.33
2022-07-27T04:33:28.660Z,2.67
2022-07-27T04:35:56.389Z,2.33
2022-07-27T04:38:23.127Z,2.38
2022-07-27T04:40:51.851Z,2.53
2022-07-27T04:43:21.680Z,2.60
2022-07-27T04:45:48.433Z,2.70
2022-07-27T04:48:15.158Z,2.78
2022-07-27T04:50:43.117Z,2.58
2022-07-27T04:53:11.594Z,2.80
2022-07-27T04:55:42.306Z,2.63
2022-07-27T04:58:09.162Z,2.78
2022-07-27T05:00:36.434Z,2.30
2022-07-27T05:03:03.706Z,2.72
2022-07-27T05:05:30.656Z,2.50
2022-07-27T05:07:57.547Z,2.83
2022-07-27T05:10:25.520Z,2.90
2022-07-27T05:12:52.399Z,2.45
2022-07-27T05:15:19.483Z,3.03
2022-07-27T05:17:46.303Z,3.15
2022-07-27T05:20:13.916Z,2.70
2022-07-27T05:22:40.726Z,3.30
2022-07-27T05:25:08.221Z,3.33
2022-07-27T05:27:36.224Z,3.17
2022-07-27T05:30:04.608Z,3.13
2022-07-27T05:32:31.354Z,4.15
2022-07-27T05:34:58.037Z,3.30
2022-07-27T05:37:24.767Z,3.60
2022-07-27T05:39:51.590Z,3.60
2022-07-27T05:42:18.362Z,3.72
2022-07-27T05:44:45.049Z,3.22
2022-07-27T05:47:11.784Z,3.22
2022-07-27T05:49:38.680Z,3.38
2022-07-27T05:52:05.756Z,3.97
2022-07-27T05:54:32.580Z,3.47
2022-07-27T05:56:59.700Z,3.40
2022-07-27T05:59:26.431Z,3.38
2022-07-27T06:01:53.184Z,3.35
2022-07-27T06:04:19.847Z,3.10
2022-07-27T06:07:05.143Z,3.90
2022-07-27T06:09:31.857Z,3.30
2022-07-27T06:11:58.556Z,3.33
2022-07-27T06:14:25.452Z,3.08
2022-07-27T06:16:52.211Z,3.20
2022-07-27T06:19:19.449Z,3.53
2022-07-27T06:21:50.269Z,3.53
2022-07-27T06:24:20.271Z,3.33
2022-07-27T06:26:47.025Z,3.10
2022-07-27T06:29:14.051Z,3.10
2022-07-27T06:31:42.792Z,3.30
2022-07-27T06:34:11.829Z,3.60
2022-07-27T06:36:42.886Z,3.30
2022-07-27T06:39:10.035Z,3.33
2022-07-27T06:41:37.120Z,3.25
2022-07-27T06:44:03.891Z,3.10
2022-07-27T06:46:30.669Z,3.22
2022-07-27T06:48:57.555Z,3.03
2022-07-27T06:51:24.648Z,2.95
2022-07-27T06:53:54.455Z,3.30
2022-07-27T06:56:22.196Z,2.72
2022-07-27T06:58:49.368Z,2.78
2022-07-27T07:01:16.424Z,2.50
2022-07-27T07:03:43.323Z,2.15
2022-07-27T07:06:10.314Z,2.63
2022-07-27T07:08:37.042Z,2.13
2022-07-27T07:11:04.007Z,2.25
2022-07-27T07:13:34.153Z,2.13
2022-07-27T07:16:04.383Z,2.10
2022-07-27T07:18:31.102Z,2.45
2022-07-27T07:20:57.973Z,2.60
2022-07-27T07:23:24.685Z,2.33
2022-07-27T07:25:51.557Z,2.15
2022-07-27T07:28:22.111Z,1.95
2022-07-27T07:30:49.696Z,2.30
2022-07-27T07:33:16.901Z,2.47
2022-07-27T07:36:12.316Z,2.30
2022-07-27T07:38:31.150Z,1.70
2022-07-27T07:40:57.897Z,1.88
2022-07-27T07:43:24.631Z,2.17
2022-07-27T07:45:52.054Z,2.30
2022-07-27T07:48:20.895Z,1.88
2022-07-27T07:50:51.673Z,2.00
2022-07-27T07:53:24.795Z,2.30
2022-07-27T07:55:52.927Z,1.83
2022-07-27T07:58:20.302Z,2.13
2022-07-27T08:00:47.049Z,2.20
2022-07-27T08:03:14.419Z,2.38
2022-07-27T08:05:41.229Z,1.95
2022-07-27T08:08:08.013Z,2.55
2022-07-27T08:10:35.092Z,2.40
2022-07-27T08:13:01.979Z,2.50
2022-07-27T08:15:35.027Z,2.33
2022-07-27T08:18:03.921Z,2.13
2022-07-27T08:20:30.809Z,2.17
2022-07-27T08:22:57.552Z,2.50
2022-07-27T08:25:24.262Z,2.20
2022-07-27T08:27:51.369Z,2.30
2022-07-27T08:30:18.135Z,2.20
2022-07-27T08:32:58.186Z,2.45
2022-07-27T08:35:25.553Z,2.35
2022-07-27T08:37:52.328Z,2.50
2022-07-27T08:43:07.627Z,3.00
2022-07-27T08:45:34.505Z,2.63
2022-07-27T08:48:03.150Z,2.22
2022-07-27T08:50:34.990Z,2.47
2022-07-27T08:53:09.526Z,2.15
2022-07-27T08:55:41.999Z,2.15
2022-07-27T08:58:09.982Z,2.40
2022-07-27T09:00:39.740Z,2.60
2022-07-27T09:03:06.955Z,2.20
2022-07-27T09:05:37.713Z,2.65
2022-07-27T09:08:15.160Z,2.53
2022-07-27T09:10:42.314Z,2.10
2022-07-27T09:13:28.012Z,2.78
2022-07-27T09:16:16.909Z,3.50
2022-07-27T09:18:42.772Z,2.60
2022-07-27T09:21:23.110Z,2.60
2022-07-27T09:24:23.512Z,2.60
2022-07-27T09:27:05.582Z,2.80
2022-07-27T09:29:36.598Z,2.55
2022-07-27T09:32:16.584Z,2.88
2022-07-27T09:34:43.997Z,2.83
2022-07-27T09:37:11.106Z,2.80
2022-07-27T09:39:39.065Z,3.10
2022-07-27T09:42:06.122Z,3.00
2022-07-27T09:44:43.718Z,3.03
2022-07-27T09:47:29.999Z,2.90
2022-07-27T09:50:06.914Z,3.13
2022-07-27T09:52:33.619Z,2.75
2022-07-27T09:55:06.139Z,2.80
2022-07-27T09:57:56.370Z,2.85
2022-07-27T10:00:24.733Z,2.70
2022-07-27T10:02:53.289Z,3.00
2022-07-27T10:05:24.058Z,2.53
2022-07-27T10:07:53.260Z,2.50
2022-07-27T10:10:21.356Z,10.45
2022-07-27T10:12:54.089Z,2.53
2022-07-27T10:15:22.703Z,2.72
2022-07-27T10:18:01.756Z,2.13
2022-07-27T10:20:29.781Z,2.45
2022-07-27T10:23:01.364Z,2.22
2022-07-27T10:25:37.284Z,2.65
2022-07-27T10:28:10.245Z,1.95
2022-07-27T10:30:37.741Z,2.30
2022-07-27T10:33:16.328Z,2.10
2022-07-27T10:35:43.482Z,2.03
2022-07-27T10:38:18.118Z,1.90
2022-07-27T10:40:44.943Z,1.70
2022-07-27T10:43:22.638Z,2.05
2022-07-27T10:46:01.342Z,2.53
2022-07-27T10:48:47.949Z,2.38
2022-07-27T10:51:17.048Z,1.83
2022-07-27T10:56:46.038Z,2.05
2022-07-27T10:59:12.710Z,1.83
2022-07-27T11:01:59.887Z,1.85
2022-07-27T11:04:26.786Z,1.98
2022-07-27T11:10:05.865Z,2.10
2022-07-27T11:12:33.683Z,1.98
2022-07-27T11:15:01.441Z,1.80
2022-07-27T11:17:57.527Z,1.77
2022-07-27T11:20:23.723Z,1.80
2022-07-27T11:25:37.145Z,1.60
2022-07-27T11:28:09.513Z,1.73
2022-07-27T11:30:36.522Z,1.75
2022-07-27T11:33:07.189Z,1.40
2022-07-27T11:35:34.152Z,1.60
2022-07-27T11:38:06.104Z,1.80
2022-07-27T11:40:57.995Z,2.15
2022-07-27T11:43:36.885Z,1.67
2022-07-27T11:46:18.227Z,1.65
2022-07-27T11:49:08.415Z,1.70
2022-07-27T11:51:56.133Z,1.80
2022-07-27T11:54:25.838Z,1.80
2022-07-27T11:57:04.043Z,1.65
2022-07-27T11:59:43.791Z,1.65
2022-07-27T12:02:13.989Z,1.70
2022-07-27T12:04:42.955Z,2.00
2022-07-27T12:07:23.497Z,1.45
2022-07-27T12:09:54.531Z,1.52
2022-07-27T12:12:25.963Z,1.60
2022-07-27T12:14:56.517Z,1.85
2022-07-27T12:17:32.049Z,1.50
2022-07-27T12:20:14.370Z,1.77
2022-07-27T12:22:43.965Z,1.75
2022-07-27T12:25:17.288Z,1.60
2022-07-27T12:27:56.291Z,1.42
2022-07-27T12:30:40.610Z,1.65
2022-07-27T12:33:24.295Z,1.55
2022-07-27T12:35:51.427Z,1.55
2022-07-27T12:38:18.289Z,1.55
2022-07-27T12:41:00.254Z,1.60
2022-07-27T12:43:27.837Z,1.60
2022-07-27T12:45:55.608Z,1.83
2022-07-27T12:48:25.862Z,1.63
2022-07-27T12:51:05.347Z,1.67
2022-07-27T12:53:33.347Z,1.50
2022-07-27T12:56:04.908Z,1.25
2022-07-27T12:58:32.023Z,1.70
2022-07-27T13:00:59.127Z,1.52
2022-07-27T13:03:26.162Z,1.60
2022-07-27T13:05:53.337Z,1.40
2022-07-27T13:08:20.408Z,1.55
2022-07-27T13:10:49.779Z,1.30
2022-07-27T13:13:16.720Z,1.90
2022-07-27T13:15:43.488Z,1.88
2022-07-27T13:18:10.160Z,1.40
2022-07-27T13:20:37.092Z,1.60
2022-07-27T13:23:08.446Z,1.63
2022-07-27T13:25:38.400Z,1.30
2022-07-27T13:28:09.584Z,1.52
2022-07-27T13:30:36.316Z,1.15
2022-07-27T13:33:03.036Z,1.50
2022-07-27T13:35:30.797Z,1.58
2022-07-27T13:37:57.509Z,1.50
2022-07-27T13:40:24.431Z,1.15
2022-07-27T13:42:51.196Z,1.35
2022-07-27T13:45:17.975Z,1.90
2022-07-27T13:47:44.780Z,1.50
2022-07-27T13:50:18.223Z,1.40
2022-07-27T13:52:46.418Z,1.55
2022-07-27T13:55:14.639Z,1.90
2022-07-27T13:57:41.787Z,1.70
2022-07-27T14:00:10.388Z,1.30
2022-07-27T14:02:37.211Z,1.33
2022-07-27T14:05:04.409Z,1.30
2022-07-27T14:07:33.295Z,1.60
2022-07-27T14:10:18.819Z,1.33
2022-07-27T14:12:45.695Z,1.48
2022-07-27T14:15:13.066Z,1.65
2022-07-27T14:17:39.848Z,1.38
2022-07-27T14:20:07.312Z,1.27
2022-07-27T14:22:35.142Z,1.60
2022-07-27T14:25:01.885Z,1.40
2022-07-27T14:27:36.258Z,1.55
2022-07-27T14:30:06.803Z,1.52
2022-07-27T14:32:34.353Z,1.30
2022-07-27T14:35:01.071Z,1.83
2022-07-27T14:37:27.915Z,1.35
2022-07-27T14:39:54.792Z,1.60
2022-07-27T14:42:23.772Z,1.70
2022-07-27T14:44:50.576Z,1.65
2022-07-27T14:47:17.307Z,1.63
2022-07-27T14:49:44.118Z,1.55
2022-07-27T14:52:13.579Z,1.40
2022-07-27T14:54:41.571Z,1.70
2022-07-27T14:57:08.626Z,1.33
2022-07-27T14:59:35.874Z,1.90
2022-07-27T15:02:03.526Z,1.10
2022-07-27T15:04:30.461Z,1.55
2022-07-27T15:06:58.318Z,1.65
2022-07-27T15:09:28.387Z,1.50
2022-07-27T15:11:55.520Z,1.70
2022-07-27T15:14:23.048Z,1.67
2022-07-27T15:16:50.872Z,1.40
2022-07-27T15:19:18.689Z,1.63
2022-07-27T15:21:47.158Z,1.60
2022-07-27T15:24:14.780Z,1.50
2022-07-27T15:26:41.486Z,1.30
2022-07-27T15:29:11.061Z,1.52
2022-07-27T15:31:41.885Z,1.40
2022-07-27T15:34:08.701Z,1.40
2022-07-27T15:36:40.535Z,1.67
2022-07-27T15:39:10.870Z,1.33
2022-07-27T15:41:39.295Z,1.33
2022-07-27T15:44:06.868Z,1.60
2022-07-27T15:46:33.969Z,1.65
2022-07-27T15:49:01.330Z,1.45
2022-07-27T15:51:28.127Z,1.60
2022-07-27T15:53:56.852Z,1.52
2022-07-27T15:56:24.509Z,1.50
2022-07-27T15:58:51.223Z,1.25
2022-07-27T16:01:21.193Z,1.50
2022-07-27T16:03:48.930Z,1.45
2022-07-27T16:06:16.108Z,1.58
2022-07-27T16:08:46.323Z,1.35
2022-07-27T16:11:16.286Z,1.25
2022-07-27T16:13:44.570Z,1.55
2022-07-27T16:16:30.331Z,1.70
2022-07-27T16:19:00.994Z,1.50
2022-07-27T16:21:53.940Z,1.52
2022-07-27T16:24:23.323Z,1.27
2022-07-27T16:26:50.102Z,1.55
2022-07-27T16:29:16.793Z,1.50
2022-07-27T16:31:43.677Z,1.23
2022-07-27T16:34:10.457Z,1.25
2022-07-27T16:36:39.178Z,1.60
2022-07-27T16:39:06.104Z,1.40
2022-07-27T16:41:32.796Z,1.42
2022-07-27T16:43:59.600Z,1.50
2022-07-27T16:46:26.351Z,1.75
2022-07-27T16:48:53.125Z,1.33
2022-07-27T16:51:19.865Z,1.45
2022-07-27T16:53:48.044Z,1.38
2022-07-27T16:56:15.279Z,1.77
2022-07-27T16:58:42.121Z,1.80
2022-07-27T17:01:09.437Z,1.40
2022-07-27T17:03:37.517Z,1.77
2022-07-27T17:06:07.164Z,1.70
2022-07-27T17:08:35.825Z,1.45
2022-07-27T17:11:02.828Z,1.40
2022-07-27T17:13:34.321Z,1.48
2022-07-27T17:16:05.796Z,1.60
2022-07-27T17:18:39.404Z,1.73
2022-07-27T17:21:07.963Z,1.20
2022-07-27T17:23:38.391Z,1.45
2022-07-27T17:26:10.731Z,1.50
2022-07-27T17:28:40.010Z,1.50
2022-07-27T17:31:11.444Z,1.60
2022-07-27T17:33:42.262Z,1.45
2022-07-27T17:36:14.712Z,1.50
2022-07-27T17:38:47.296Z,1.88
2022-07-27T17:41:23.531Z,1.55
2022-07-27T17:43:52.455Z,1.58
2022-07-27T17:46:19.730Z,1.77
2022-07-27T17:48:46.651Z,1.50
2022-07-27T17:51:13.473Z,1.48
2022-07-27T17:53:40.320Z,1.65
2022-07-27T17:56:08.523Z,1.55
2022-07-27T17:58:35.496Z,1.50
2022-07-27T18:01:02.353Z,1.85
2022-07-27T18:03:29.039Z,1.63
2022-07-27T18:05:55.871Z,2.00
2022-07-27T18:08:22.795Z,1.60
2022-07-27T18:10:51.621Z,1.60
2022-07-27T18:13:18.428Z,1.70
2022-07-27T18:15:48.080Z,1.88
2022-07-27T18:18:16.779Z,1.52
2022-07-27T18:20:45.047Z,1.63
2022-07-27T18:23:11.862Z,1.75
2022-07-27T18:25:39.153Z,1.80
2022-07-27T18:28:06.125Z,1.95
2022-07-27T18:30:33.014Z,1.60
2022-07-27T18:32:59.701Z,1.40
2022-07-27T18:35:26.489Z,1.75
2022-07-27T18:37:53.170Z,1.60
2022-07-27T18:40:21.700Z,2.03
2022-07-27T18:42:48.433Z,1.88
2022-07-27T18:45:15.281Z,1.75
2022-07-27T18:47:41.988Z,1.42
2022-07-27T18:50:16.535Z,1.70
2022-07-27T18:52:43.474Z,1.50
2022-07-27T18:55:10.597Z,1.67
2022-07-27T18:57:37.380Z,1.70
2022-07-27T19:00:05.344Z,1.80
2022-07-27T19:02:37.133Z,1.67
2022-07-27T19:05:07.340Z,1.50
2022-07-27T19:07:35.813Z,1.60
2022-07-27T19:10:06.008Z,1.63
2022-07-27T19:12:32.646Z,1.50
2022-07-27T19:14:59.330Z,1.52
2022-07-27T19:17:26.082Z,1.52
2022-07-27T19:19:53.095Z,1.15
2022-07-27T19:22:22.567Z,1.80
2022-07-27T19:24:54.662Z,1.60
2022-07-27T19:27:21.850Z,1.63
2022-07-27T19:29:48.549Z,1.60
2022-07-27T19:32:16.708Z,1.40
2022-07-27T19:34:43.537Z,2.00
2022-07-27T19:37:10.289Z,1.65
2022-07-27T19:39:59.946Z,1.77
2022-07-27T19:42:24.141Z,1.80
2022-07-27T19:44:50.978Z,1.92
2022-07-27T19:47:18.448Z,1.63
2022-07-27T19:49:45.542Z,1.42
2022-07-27T19:52:12.423Z,1.70
2022-07-27T19:54:39.234Z,1.63
2022-07-27T19:57:06.381Z,1.38
2022-07-27T19:59:55.378Z,1.90
2022-07-27T20:02:19.896Z,1.60
2022-07-27T20:04:46.682Z,2.35
2022-07-27T20:07:13.368Z,1.55
2022-07-27T20:09:40.388Z,1.67
2022-07-27T20:12:08.339Z,1.40
2022-07-27T20:14:35.210Z,1.80
2022-07-27T20:17:01.990Z,1.67
2022-07-27T20:19:30.070Z,2.20
2022-07-27T20:21:57.464Z,1.50
2022-07-27T20:24:24.105Z,1.75
2022-07-27T20:26:50.814Z,1.10
2022-07-27T20:29:17.551Z,1.73
2022-07-27T20:31:44.289Z,1.75
2022-07-27T20:34:11.124Z,1.27
2022-07-27T20:36:37.870Z,1.58
2022-07-27T20:39:10.761Z,1.30
2022-07-27T20:41:40.682Z,1.40
2022-07-27T20:44:07.854Z,1.50
2022-07-27T20:46:34.629Z,1.98
2022-07-27T20:49:01.414Z,1.73
2022-07-27T20:51:28.347Z,1.80
2022-07-27T20:53:55.737Z,1.40
2022-07-27T20:56:22.700Z,1.33
2022-07-27T20:58:49.509Z,1.83
2022-07-27T21:01:16.363Z,1.40
2022-07-27T21:03:43.065Z,1.40
2022-07-27T21:06:09.875Z,1.55
2022-07-27T21:08:36.631Z,1.38
2022-07-27T21:11:03.345Z,1.70
2022-07-27T21:13:30.097Z,1.35
2022-07-27T21:15:56.767Z,1.20
2022-07-27T21:18:25.902Z,1.67
2022-07-27T21:20:52.612Z,1.30
2022-07-27T21:23:38.059Z,1.33
2022-07-27T21:26:04.724Z,1.23
2022-07-27T21:28:31.410Z,1.33
2022-07-27T21:31:00.664Z,1.63
2022-07-27T21:33:27.675Z,1.40
2022-07-27T21:35:54.533Z,1.40
2022-07-27T21:38:21.218Z,1.45
2022-07-27T21:40:48.005Z,1.73
2022-07-27T21:43:14.846Z,1.45
2022-07-27T21:45:49.546Z,1.48
2022-07-27T21:48:16.519Z,1.63
2022-07-27T21:50:43.308Z,1.38
2022-07-27T21:53:10.059Z,1.40
2022-07-27T21:55:39.104Z,1.70
2022-07-27T21:58:05.872Z,1.10
2022-07-27T22:00:33.241Z,1.88
2022-07-27T22:03:00.003Z,1.70
2022-07-27T22:05:27.286Z,1.15
2022-07-27T22:07:54.023Z,1.10
2022-07-27T22:10:20.813Z,1.40
2022-07-27T22:12:47.555Z,1.52
2022-07-27T22:15:14.328Z,1.35
2022-07-27T22:17:46.248Z,1.17
2022-07-27T22:20:18.259Z,1.40
2022-07-27T22:22:45.384Z,1.40
2022-07-27T22:25:12.183Z,1.23
2022-07-27T22:27:39.198Z,1.80
2022-07-27T22:30:07.010Z,1.30
2022-07-27T22:32:34.081Z,1.50
2022-07-27T22:35:00.985Z,1.55
2022-07-27T22:37:27.773Z,1.58
2022-07-27T22:39:54.511Z,1.45
2022-07-27T22:42:21.253Z,1.48
2022-07-27T22:44:47.987Z,1.58
2022-07-27T22:47:14.704Z,1.50
2022-07-27T22:49:41.421Z,1.13
2022-07-27T22:52:08.167Z,1.50
2022-07-27T22:54:36.871Z,1.30
2022-07-27T22:57:05.804Z,1.55
2022-07-27T22:59:33.243Z,1.13
2022-07-27T23:02:00.209Z,1.27
2022-07-27T23:04:27.232Z,1.40
2022-07-27T23:06:53.925Z,1.20
2022-07-27T23:09:21.237Z,1.33
2022-07-27T23:11:48.005Z,1.30
2022-07-27T23:14:15.465Z,1.13
2022-07-27T23:16:42.998Z,1.08
2022-07-27T23:19:10.021Z,0.90
2022-07-27T23:21:37.496Z,1.42
2022-07-27T23:24:05.059Z,1.10
2022-07-27T23:26:31.863Z,1.20
2022-07-27T23:28:58.556Z,1.50
2022-07-27T23:31:26.200Z,1.15
2022-07-27T23:33:53.002Z,1.30
2022-07-27T23:36:19.802Z,1.30
2022-07-27T23:38:46.458Z,1.42
2022-07-27T23:41:13.226Z,1.50
2022-07-27T23:43:39.958Z,1.05
2022-07-27T23:46:06.984Z,1.23
2022-07-27T23:48:33.809Z,1.38
2022-07-27T23:51:00.642Z,1.00
2022-07-27T23:53:28.445Z,1.05
2022-07-27T23:55:55.283Z,1.23
2022-07-27T23:58:22.139Z,1.00
